sensor_id;sensor_type;location;lat;lon;timestamp;temperature;humidity
35678;DHT22;21791;42.828;74.582;2023-02-15T00:01:59;0.20;99.90
35678;DHT22;21791;42.828;74.582;2023-02-15T00:04:26;0.20;99.90
35678;DHT22;21791;42.828;74.582;2023-02-15T00:07:11;0.20;99.90
35678;DHT22;21791;42.828;74.582;2023-02-15T00:09:37;0.30;99.90
35678;DHT22;21791;42.828;74.582;2023-02-15T00:12:04;0.20;99.90
35678;DHT22;21791;42.828;74.582;2023-02-15T00:14:30;0.20;99.90
35678;DHT22;21791;42.828;74.582;2023-02-15T00:16:57;0.20;99.90
35678;DHT22;21791;42.828;74.582;2023-02-15T00:19:25;0.20;99.90
35678;DHT22;21791;42.828;74.582;2023-02-15T00:21:52;0.10;99.90
35678;DHT22;21791;42.828;74.582;2023-02-15T00:24:19;0.10;99.90
35678;DHT22;21791;42.828;74.582;2023-02-15T00:26:47;0.30;99.90
35678;DHT22;21791;42.828;74.582;2023-02-15T00:29:18;0.30;99.90
35678;DHT22;21791;42.828;74.582;2023-02-15T00:31:45;0.40;99.90
35678;DHT22;21791;42.828;74.582;2023-02-15T00:34:15;0.40;99.90
35678;DHT22;21791;42.828;74.582;2023-02-15T00:36:42;0.40;99.90
35678;DHT22;21791;42.828;74.582;2023-02-15T00:39:09;0.30;99.90
35678;DHT22;21791;42.828;74.582;2023-02-15T00:41:35;0.50;99.90
35678;DHT22;21791;42.828;74.582;2023-02-15T00:44:03;0.50;99.90
35678;DHT22;21791;42.828;74.582;2023-02-15T00:46:29;0.20;99.90
35678;DHT22;21791;42.828;74.582;2023-02-15T00:48:56;0.10;99.90
35678;DHT22;21791;42.828;74.582;2023-02-15T00:51:23;-0.10;99.90
35678;DHT22;21791;42.828;74.582;2023-02-15T00:53:50;-0.20;99.90
35678;DHT22;21791;42.828;74.582;2023-02-15T00:56:16;-0.30;99.90
35678;DHT22;21791;42.828;74.582;2023-02-15T00:58:43;-0.40;99.90
35678;DHT22;21791;42.828;74.582;2023-02-15T01:01:12;-0.50;99.90
35678;DHT22;21791;42.828;74.582;2023-02-15T01:03:39;-0.60;99.90
35678;DHT22;21791;42.828;74.582;2023-02-15T01:06:08;-0.80;99.90
35678;DHT22;21791;42.828;74.582;2023-02-15T01:08:34;-0.90;99.90
35678;DHT22;21791;42.828;74.582;2023-02-15T01:11:05;-1.00;99.90
35678;DHT22;21791;42.828;74.582;2023-02-15T01:13:33;-1.20;99.90
35678;DHT22;21791;42.828;74.582;2023-02-15T01:15:59;-1.20;99.90
35678;DHT22;21791;42.828;74.582;2023-02-15T01:18:25;-1.40;99.90
35678;DHT22;21791;42.828;74.582;2023-02-15T01:20:52;-1.50;99.90
35678;DHT22;21791;42.828;74.582;2023-02-15T01:23:19;-1.40;99.90
35678;DHT22;21791;42.828;74.582;2023-02-15T01:25:45;-1.40;99.90
35678;DHT22;21791;42.828;74.582;2023-02-15T01:28:12;-1.40;99.90
35678;DHT22;21791;42.828;74.582;2023-02-15T01:30:39;-0.80;99.90
35678;DHT22;21791;42.828;74.582;2023-02-15T01:33:05;-0.10;99.90
35678;DHT22;21791;42.828;74.582;2023-02-15T01:35:32;0.00;99.90
35678;DHT22;21791;42.828;74.582;2023-02-15T01:37:58;0.00;99.90
35678;DHT22;21791;42.828;74.582;2023-02-15T01:40:25;-0.10;99.90
35678;DHT22;21791;42.828;74.582;2023-02-15T01:42:53;-0.20;99.90
35678;DHT22;21791;42.828;74.582;2023-02-15T01:45:26;-0.30;99.90
35678;DHT22;21791;42.828;74.582;2023-02-15T01:48:03;-0.50;99.90
35678;DHT22;21791;42.828;74.582;2023-02-15T01:50:36;-0.50;99.90
35678;DHT22;21791;42.828;74.582;2023-02-15T01:53:25;-0.60;99.90
35678;DHT22;21791;42.828;74.582;2023-02-15T01:56:06;-0.80;99.90
35678;DHT22;21791;42.828;74.582;2023-02-15T01:58:34;-1.00;99.90
35678;DHT22;21791;42.828;74.582;2023-02-15T02:01:02;-1.10;99.90
35678;DHT22;21791;42.828;74.582;2023-02-15T02:06:33;-1.20;99.90
35678;DHT22;21791;42.828;74.582;2023-02-15T02:09:02;-1.30;99.90
35678;DHT22;21791;42.828;74.582;2023-02-15T02:11:28;-1.30;99.90
35678;DHT22;21791;42.828;74.582;2023-02-15T02:13:55;-1.30;99.90
35678;DHT22;21791;42.828;74.582;2023-02-15T02:16:38;-1.60;99.90
35678;DHT22;21791;42.828;74.582;2023-02-15T02:30:37;-2.20;99.90
35678;DHT22;21791;42.828;74.582;2023-02-15T02:33:25;-2.30;99.90
35678;DHT22;21791;42.828;74.582;2023-02-15T02:38:40;-2.40;99.90
35678;DHT22;21791;42.828;74.582;2023-02-15T02:41:20;-2.40;99.90
35678;DHT22;21791;42.828;74.582;2023-02-15T02:46:48;-2.50;99.90
35678;DHT22;21791;42.828;74.582;2023-02-15T02:49:17;-2.40;99.90
35678;DHT22;21791;42.828;74.582;2023-02-15T02:52:04;-2.40;99.90
35678;DHT22;21791;42.828;74.582;2023-02-15T02:54:33;-2.30;99.90
35678;DHT22;21791;42.828;74.582;2023-02-15T02:57:04;-2.20;99.90
35678;DHT22;21791;42.828;74.582;2023-02-15T02:59:34;-2.10;99.90
35678;DHT22;21791;42.828;74.582;2023-02-15T03:02:07;-2.00;99.90
35678;DHT22;21791;42.828;74.582;2023-02-15T03:04:41;-1.80;99.90
35678;DHT22;21791;42.828;74.582;2023-02-15T03:07:12;-1.70;99.90
35678;DHT22;21791;42.828;74.582;2023-02-15T03:09:45;-1.50;99.90
35678;DHT22;21791;42.828;74.582;2023-02-15T03:12:21;-1.40;99.90
35678;DHT22;21791;42.828;74.582;2023-02-15T03:15:02;-1.20;99.90
35678;DHT22;21791;42.828;74.582;2023-02-15T03:17:32;-1.10;99.90
35678;DHT22;21791;42.828;74.582;2023-02-15T03:20:04;-0.80;99.90
35678;DHT22;21791;42.828;74.582;2023-02-15T03:22:38;-0.70;99.90
35678;DHT22;21791;42.828;74.582;2023-02-15T03:25:42;-0.40;99.90
35678;DHT22;21791;42.828;74.582;2023-02-15T03:28:15;0.30;99.90
35678;DHT22;21791;42.828;74.582;2023-02-15T03:30:47;0.90;99.90
35678;DHT22;21791;42.828;74.582;2023-02-15T03:33:15;1.30;99.90
35678;DHT22;21791;42.828;74.582;2023-02-15T03:35:58;1.80;99.90
35678;DHT22;21791;42.828;74.582;2023-02-15T03:38:40;2.20;99.90
35678;DHT22;21791;42.828;74.582;2023-02-15T03:41:10;2.50;99.90
35678;DHT22;21791;42.828;74.582;2023-02-15T03:43:52;2.60;99.90
35678;DHT22;21791;42.828;74.582;2023-02-15T03:49:07;3.20;99.90
35678;DHT22;21791;42.828;74.582;2023-02-15T03:51:37;3.50;99.90
35678;DHT22;21791;42.828;74.582;2023-02-15T03:57:03;4.10;99.90
35678;DHT22;21791;42.828;74.582;2023-02-15T03:59:48;4.30;99.90
35678;DHT22;21791;42.828;74.582;2023-02-15T04:02:46;4.30;99.90
35678;DHT22;21791;42.828;74.582;2023-02-15T04:05:15;4.30;99.90
35678;DHT22;21791;42.828;74.582;2023-02-15T04:07:42;4.60;99.90
35678;DHT22;21791;42.828;74.582;2023-02-15T04:10:09;4.50;99.90
35678;DHT22;21791;42.828;74.582;2023-02-15T04:12:54;4.40;99.90
35678;DHT22;21791;42.828;74.582;2023-02-15T04:15:20;5.00;99.90
35678;DHT22;21791;42.828;74.582;2023-02-15T04:18:05;5.00;99.90
35678;DHT22;21791;42.828;74.582;2023-02-15T04:20:31;5.20;99.90
35678;DHT22;21791;42.828;74.582;2023-02-15T04:23:16;5.50;99.90
35678;DHT22;21791;42.828;74.582;2023-02-15T04:26:05;5.60;99.90
35678;DHT22;21791;42.828;74.582;2023-02-15T04:28:31;5.80;99.90
35678;DHT22;21791;42.828;74.582;2023-02-15T04:30:58;5.50;99.90
35678;DHT22;21791;42.828;74.582;2023-02-15T04:33:24;5.10;99.90
35678;DHT22;21791;42.828;74.582;2023-02-15T04:35:51;5.60;99.90
35678;DHT22;21791;42.828;74.582;2023-02-15T04:38:17;5.80;99.90
35678;DHT22;21791;42.828;74.582;2023-02-15T04:40:44;5.80;97.70
35678;DHT22;21791;42.828;74.582;2023-02-15T04:43:10;5.40;99.90
35678;DHT22;21791;42.828;74.582;2023-02-15T04:45:37;5.80;97.80
35678;DHT22;21791;42.828;74.582;2023-02-15T04:48:03;5.50;96.20
35678;DHT22;21791;42.828;74.582;2023-02-15T04:50:29;5.00;99.00
35678;DHT22;21791;42.828;74.582;2023-02-15T04:52:56;4.60;99.60
35678;DHT22;21791;42.828;74.582;2023-02-15T04:55:23;5.00;99.90
35678;DHT22;21791;42.828;74.582;2023-02-15T04:57:49;5.80;99.30
35678;DHT22;21791;42.828;74.582;2023-02-15T05:00:19;6.20;98.90
35678;DHT22;21791;42.828;74.582;2023-02-15T05:02:46;6.90;96.50
35678;DHT22;21791;42.828;74.582;2023-02-15T05:05:12;6.90;92.30
35678;DHT22;21791;42.828;74.582;2023-02-15T05:07:40;7.00;90.90
35678;DHT22;21791;42.828;74.582;2023-02-15T05:10:07;7.40;91.10
35678;DHT22;21791;42.828;74.582;2023-02-15T05:12:34;7.50;89.80
35678;DHT22;21791;42.828;74.582;2023-02-15T05:15:00;7.50;88.00
35678;DHT22;21791;42.828;74.582;2023-02-15T05:17:26;6.60;90.00
35678;DHT22;21791;42.828;74.582;2023-02-15T05:19:53;6.70;90.00
35678;DHT22;21791;42.828;74.582;2023-02-15T05:22:19;7.20;90.30
35678;DHT22;21791;42.828;74.582;2023-02-15T05:24:46;7.70;86.80
35678;DHT22;21791;42.828;74.582;2023-02-15T05:27:30;7.60;82.60
35678;DHT22;21791;42.828;74.582;2023-02-15T05:30:15;8.00;81.00
35678;DHT22;21791;42.828;74.582;2023-02-15T05:32:45;7.70;82.10
35678;DHT22;21791;42.828;74.582;2023-02-15T05:35:15;7.70;77.10
35678;DHT22;21791;42.828;74.582;2023-02-15T05:37:41;7.20;74.90
35678;DHT22;21791;42.828;74.582;2023-02-15T05:40:08;6.30;77.60
35678;DHT22;21791;42.828;74.582;2023-02-15T05:42:35;5.90;79.30
35678;DHT22;21791;42.828;74.582;2023-02-15T05:45:01;5.60;79.30
35678;DHT22;21791;42.828;74.582;2023-02-15T05:47:29;6.00;85.20
35678;DHT22;21791;42.828;74.582;2023-02-15T05:49:56;6.70;81.10
35678;DHT22;21791;42.828;74.582;2023-02-15T05:52:22;7.00;76.50
35678;DHT22;21791;42.828;74.582;2023-02-15T05:54:49;7.60;82.60
35678;DHT22;21791;42.828;74.582;2023-02-15T05:57:15;6.90;77.80
35678;DHT22;21791;42.828;74.582;2023-02-15T05:59:41;6.90;83.10
35678;DHT22;21791;42.828;74.582;2023-02-15T06:02:08;7.20;77.30
35678;DHT22;21791;42.828;74.582;2023-02-15T06:04:35;7.30;75.20
35678;DHT22;21791;42.828;74.582;2023-02-15T06:07:02;7.70;74.40
35678;DHT22;21791;42.828;74.582;2023-02-15T06:09:28;8.00;72.00
35678;DHT22;21791;42.828;74.582;2023-02-15T06:11:54;8.30;73.10
35678;DHT22;21791;42.828;74.582;2023-02-15T06:14:21;7.60;70.20
35678;DHT22;21791;42.828;74.582;2023-02-15T06:16:47;6.60;74.10
35678;DHT22;21791;42.828;74.582;2023-02-15T06:19:14;7.20;76.60
35678;DHT22;21791;42.828;74.582;2023-02-15T06:21:40;7.40;75.60
35678;DHT22;21791;42.828;74.582;2023-02-15T06:24:08;7.60;81.40
35678;DHT22;21791;42.828;74.582;2023-02-15T06:26:35;7.30;74.10
35678;DHT22;21791;42.828;74.582;2023-02-15T06:29:02;7.00;76.50
35678;DHT22;21791;42.828;74.582;2023-02-15T06:31:28;7.40;79.20
35678;DHT22;21791;42.828;74.582;2023-02-15T06:33:55;7.50;78.70
35678;DHT22;21791;42.828;74.582;2023-02-15T06:36:28;7.10;79.50
35678;DHT22;21791;42.828;74.582;2023-02-15T06:38:56;7.20;80.00
35678;DHT22;21791;42.828;74.582;2023-02-15T06:41:23;7.00;83.00
35678;DHT22;21791;42.828;74.582;2023-02-15T06:43:50;7.10;84.00
35678;DHT22;21791;42.828;74.582;2023-02-15T06:46:17;6.20;87.50
35678;DHT22;21791;42.828;74.582;2023-02-15T06:48:43;6.20;89.40
35678;DHT22;21791;42.828;74.582;2023-02-15T06:51:10;6.30;89.70
35678;DHT22;21791;42.828;74.582;2023-02-15T06:53:36;6.30;89.00
35678;DHT22;21791;42.828;74.582;2023-02-15T06:56:05;6.10;90.20
35678;DHT22;21791;42.828;74.582;2023-02-15T06:58:33;6.20;92.00
35678;DHT22;21791;42.828;74.582;2023-02-15T07:00:59;6.20;93.80
35678;DHT22;21791;42.828;74.582;2023-02-15T07:03:26;6.60;95.30
35678;DHT22;21791;42.828;74.582;2023-02-15T07:05:56;6.80;93.10
35678;DHT22;21791;42.828;74.582;2023-02-15T07:08:24;6.80;95.10
35678;DHT22;21791;42.828;74.582;2023-02-15T07:10:51;6.60;95.30
35678;DHT22;21791;42.828;74.582;2023-02-15T07:13:18;6.10;98.60
35678;DHT22;21791;42.828;74.582;2023-02-15T07:15:45;5.80;99.90
35678;DHT22;21791;42.828;74.582;2023-02-15T07:18:12;5.30;99.90
35678;DHT22;21791;42.828;74.582;2023-02-15T07:20:39;5.10;99.90
35678;DHT22;21791;42.828;74.582;2023-02-15T07:23:08;5.00;99.90
35678;DHT22;21791;42.828;74.582;2023-02-15T07:25:37;5.50;99.90
35678;DHT22;21791;42.828;74.582;2023-02-15T07:28:04;6.00;99.90
35678;DHT22;21791;42.828;74.582;2023-02-15T07:30:30;6.20;99.90
35678;DHT22;21791;42.828;74.582;2023-02-15T07:32:58;5.90;99.90
35678;DHT22;21791;42.828;74.582;2023-02-15T07:35:56;5.70;99.90
35678;DHT22;21791;42.828;74.582;2023-02-15T07:38:32;5.50;99.90
35678;DHT22;21791;42.828;74.582;2023-02-15T07:41:04;5.30;99.90
35678;DHT22;21791;42.828;74.582;2023-02-15T07:43:32;4.90;99.90
35678;DHT22;21791;42.828;74.582;2023-02-15T07:46:05;4.60;99.90
35678;DHT22;21791;42.828;74.582;2023-02-15T07:48:33;4.40;99.90
35678;DHT22;21791;42.828;74.582;2023-02-15T07:51:01;4.00;99.90
35678;DHT22;21791;42.828;74.582;2023-02-15T07:53:28;4.10;99.90
35678;DHT22;21791;42.828;74.582;2023-02-15T07:56:01;4.20;99.90
35678;DHT22;21791;42.828;74.582;2023-02-15T07:58:28;4.20;99.90
35678;DHT22;21791;42.828;74.582;2023-02-15T08:01:14;4.10;99.90
35678;DHT22;21791;42.828;74.582;2023-02-15T08:03:40;4.00;99.90
35678;DHT22;21791;42.828;74.582;2023-02-15T08:06:07;3.90;99.90
35678;DHT22;21791;42.828;74.582;2023-02-15T08:08:34;4.00;99.90
35678;DHT22;21791;42.828;74.582;2023-02-15T08:11:06;4.10;99.90
35678;DHT22;21791;42.828;74.582;2023-02-15T08:13:56;3.80;99.90
35678;DHT22;21791;42.828;74.582;2023-02-15T08:16:52;4.00;99.90
35678;DHT22;21791;42.828;74.582;2023-02-15T08:19:23;3.90;99.90
35678;DHT22;21791;42.828;74.582;2023-02-15T08:21:52;3.80;99.90
35678;DHT22;21791;42.828;74.582;2023-02-15T08:24:21;3.50;99.90
35678;DHT22;21791;42.828;74.582;2023-02-15T08:26:49;3.40;99.90
35678;DHT22;21791;42.828;74.582;2023-02-15T08:29:17;3.60;99.90
35678;DHT22;21791;42.828;74.582;2023-02-15T08:31:46;3.80;99.90
35678;DHT22;21791;42.828;74.582;2023-02-15T08:34:18;3.80;99.90
35678;DHT22;21791;42.828;74.582;2023-02-15T08:36:44;3.60;99.90
35678;DHT22;21791;42.828;74.582;2023-02-15T08:39:12;3.60;99.90
35678;DHT22;21791;42.828;74.582;2023-02-15T08:41:43;3.70;99.90
35678;DHT22;21791;42.828;74.582;2023-02-15T08:44:10;3.80;99.90
35678;DHT22;21791;42.828;74.582;2023-02-15T08:46:39;3.80;99.90
35678;DHT22;21791;42.828;74.582;2023-02-15T08:49:06;3.90;99.90
35678;DHT22;21791;42.828;74.582;2023-02-15T08:51:34;4.00;99.90
35678;DHT22;21791;42.828;74.582;2023-02-15T08:54:04;3.90;99.90
35678;DHT22;21791;42.828;74.582;2023-02-15T08:56:35;3.80;99.90
35678;DHT22;21791;42.828;74.582;2023-02-15T08:59:03;3.70;99.90
35678;DHT22;21791;42.828;74.582;2023-02-15T09:01:32;3.70;99.90
35678;DHT22;21791;42.828;74.582;2023-02-15T09:04:01;3.60;99.90
35678;DHT22;21791;42.828;74.582;2023-02-15T09:06:28;3.80;99.90
35678;DHT22;21791;42.828;74.582;2023-02-15T09:08:55;3.90;99.90
35678;DHT22;21791;42.828;74.582;2023-02-15T09:11:25;3.90;99.90
35678;DHT22;21791;42.828;74.582;2023-02-15T09:13:57;4.10;99.90
35678;DHT22;21791;42.828;74.582;2023-02-15T09:16:26;4.30;99.90
35678;DHT22;21791;42.828;74.582;2023-02-15T09:18:54;4.10;99.90
35678;DHT22;21791;42.828;74.582;2023-02-15T09:21:22;3.90;99.90
35678;DHT22;21791;42.828;74.582;2023-02-15T09:23:52;3.90;99.90
35678;DHT22;21791;42.828;74.582;2023-02-15T09:26:20;4.10;99.90
35678;DHT22;21791;42.828;74.582;2023-02-15T09:28:52;4.00;99.90
35678;DHT22;21791;42.828;74.582;2023-02-15T09:31:22;3.70;99.90
35678;DHT22;21791;42.828;74.582;2023-02-15T09:33:49;3.70;99.90
35678;DHT22;21791;42.828;74.582;2023-02-15T09:39:20;3.70;99.90
35678;DHT22;21791;42.828;74.582;2023-02-15T09:47:42;3.80;99.90
35678;DHT22;21791;42.828;74.582;2023-02-15T10:18:01;4.00;99.90
35678;DHT22;21791;42.828;74.582;2023-02-15T10:28:53;3.80;99.90
35678;DHT22;21791;42.828;74.582;2023-02-15T10:31:27;3.80;99.90
35678;DHT22;21791;42.828;74.582;2023-02-15T10:34:23;3.80;99.90
35678;DHT22;21791;42.828;74.582;2023-02-15T10:47:57;3.50;99.90
35678;DHT22;21791;42.828;74.582;2023-02-15T10:53:24;3.30;99.90
35678;DHT22;21791;42.828;74.582;2023-02-15T10:59:13;3.20;99.90
35678;DHT22;21791;42.828;74.582;2023-02-15T11:04:32;3.40;99.90
35678;DHT22;21791;42.828;74.582;2023-02-15T11:07:32;3.30;99.90
35678;DHT22;21791;42.828;74.582;2023-02-15T11:12:44;3.30;99.90
35678;DHT22;21791;42.828;74.582;2023-02-15T11:18:02;3.30;99.90
35678;DHT22;21791;42.828;74.582;2023-02-15T11:20:35;3.20;99.90
35678;DHT22;21791;42.828;74.582;2023-02-15T11:23:15;3.10;99.90
35678;DHT22;21791;42.828;74.582;2023-02-15T11:25:46;3.00;99.90
35678;DHT22;21791;42.828;74.582;2023-02-15T11:28:51;2.80;99.90
35678;DHT22;21791;42.828;74.582;2023-02-15T11:31:25;2.70;99.90
35678;DHT22;21791;42.828;74.582;2023-02-15T11:34:00;2.60;99.90
35678;DHT22;21791;42.828;74.582;2023-02-15T11:36:34;2.60;99.90
35678;DHT22;21791;42.828;74.582;2023-02-15T11:39:09;2.60;99.90
35678;DHT22;21791;42.828;74.582;2023-02-15T11:41:40;2.50;99.90
35678;DHT22;21791;42.828;74.582;2023-02-15T11:44:39;2.50;99.90
35678;DHT22;21791;42.828;74.582;2023-02-15T11:47:11;2.60;99.90
35678;DHT22;21791;42.828;74.582;2023-02-15T11:49:38;2.70;99.90
35678;DHT22;21791;42.828;74.582;2023-02-15T11:52:08;2.60;99.90
35678;DHT22;21791;42.828;74.582;2023-02-15T11:54:43;2.50;99.90
35678;DHT22;21791;42.828;74.582;2023-02-15T11:57:17;2.30;99.90
35678;DHT22;21791;42.828;74.582;2023-02-15T12:00:06;2.30;99.90
35678;DHT22;21791;42.828;74.582;2023-02-15T12:02:37;2.20;99.90
35678;DHT22;21791;42.828;74.582;2023-02-15T12:05:17;2.20;99.90
35678;DHT22;21791;42.828;74.582;2023-02-15T12:08:23;2.10;99.90
35678;DHT22;21791;42.828;74.582;2023-02-15T12:11:09;2.00;99.90
35678;DHT22;21791;42.828;74.582;2023-02-15T12:14:02;2.00;99.90
35678;DHT22;21791;42.828;74.582;2023-02-15T12:16:54;2.10;99.90
35678;DHT22;21791;42.828;74.582;2023-02-15T12:21:50;2.00;99.90
35678;DHT22;21791;42.828;74.582;2023-02-15T12:24:19;2.10;99.90
35678;DHT22;21791;42.828;74.582;2023-02-15T12:27:03;2.00;99.90
35678;DHT22;21791;42.828;74.582;2023-02-15T12:29:56;1.90;99.90
35678;DHT22;21791;42.828;74.582;2023-02-15T12:32:28;1.80;99.90
35678;DHT22;21791;42.828;74.582;2023-02-15T12:38:41;1.60;99.90
35678;DHT22;21791;42.828;74.582;2023-02-15T12:40:59;1.60;99.90
35678;DHT22;21791;42.828;74.582;2023-02-15T12:43:32;1.60;99.90
35678;DHT22;21791;42.828;74.582;2023-02-15T12:46:28;1.60;99.90
35678;DHT22;21791;42.828;74.582;2023-02-15T12:49:19;1.50;99.90
35678;DHT22;21791;42.828;74.582;2023-02-15T12:51:52;1.50;99.90
35678;DHT22;21791;42.828;74.582;2023-02-15T12:54:30;1.40;99.90
35678;DHT22;21791;42.828;74.582;2023-02-15T12:56:58;1.40;99.90
35678;DHT22;21791;42.828;74.582;2023-02-15T12:59:25;1.40;99.90
35678;DHT22;21791;42.828;74.582;2023-02-15T13:01:52;1.40;99.90
35678;DHT22;21791;42.828;74.582;2023-02-15T13:04:26;1.40;99.90
35678;DHT22;21791;42.828;74.582;2023-02-15T13:07:01;1.20;99.90
35678;DHT22;21791;42.828;74.582;2023-02-15T13:12:26;1.10;99.90
35678;DHT22;21791;42.828;74.582;2023-02-15T13:14:55;1.00;99.90
35678;DHT22;21791;42.828;74.582;2023-02-15T13:17:28;0.90;99.90
35678;DHT22;21791;42.828;74.582;2023-02-15T13:19:59;0.90;99.90
35678;DHT22;21791;42.828;74.582;2023-02-15T13:22:39;0.80;99.90
35678;DHT22;21791;42.828;74.582;2023-02-15T13:25:30;0.80;99.90
35678;DHT22;21791;42.828;74.582;2023-02-15T13:28:03;0.70;99.90
35678;DHT22;21791;42.828;74.582;2023-02-15T13:30:36;0.60;99.90
35678;DHT22;21791;42.828;74.582;2023-02-15T13:33:20;0.60;99.90
35678;DHT22;21791;42.828;74.582;2023-02-15T13:36:09;0.60;99.90
35678;DHT22;21791;42.828;74.582;2023-02-15T13:49:21;0.50;99.90
35678;DHT22;21791;42.828;74.582;2023-02-15T14:00:26;0.50;99.90
35678;DHT22;21791;42.828;74.582;2023-02-15T14:11:15;0.40;99.90
35678;DHT22;21791;42.828;74.582;2023-02-15T14:14:08;0.40;99.90
35678;DHT22;21791;42.828;74.582;2023-02-15T14:24:30;0.40;99.90
35678;DHT22;21791;42.828;74.582;2023-02-15T14:27:05;0.30;99.90
35678;DHT22;21791;42.828;74.582;2023-02-15T14:29:56;0.30;99.90
35678;DHT22;21791;42.828;74.582;2023-02-15T14:32:42;0.20;99.90
35678;DHT22;21791;42.828;74.582;2023-02-15T14:35:15;0.30;99.90
35678;DHT22;21791;42.828;74.582;2023-02-15T14:40:30;0.30;99.90
35678;DHT22;21791;42.828;74.582;2023-02-15T14:46:19;0.40;99.90
35678;DHT22;21791;42.828;74.582;2023-02-15T14:48:50;0.30;99.90
35678;DHT22;21791;42.828;74.582;2023-02-15T14:56:47;0.20;99.90
35678;DHT22;21791;42.828;74.582;2023-02-15T14:59:45;0.30;99.90
35678;DHT22;21791;42.828;74.582;2023-02-15T15:02:13;0.20;99.90
35678;DHT22;21791;42.828;74.582;2023-02-15T15:05:07;0.30;99.90
35678;DHT22;21791;42.828;74.582;2023-02-15T15:08:17;0.20;99.90
35678;DHT22;21791;42.828;74.582;2023-02-15T15:10:37;0.30;99.90
35678;DHT22;21791;42.828;74.582;2023-02-15T15:18:52;0.20;99.90
35678;DHT22;21791;42.828;74.582;2023-02-15T15:47:25;0.50;99.90
35678;DHT22;21791;42.828;74.582;2023-02-15T15:49:58;0.50;99.90
35678;DHT22;21791;42.828;74.582;2023-02-15T15:52:26;0.40;99.90
35678;DHT22;21791;42.828;74.582;2023-02-15T15:54:57;0.30;99.90
35678;DHT22;21791;42.828;74.582;2023-02-15T15:57:30;0.40;99.90
35678;DHT22;21791;42.828;74.582;2023-02-15T15:59:59;0.40;99.90
35678;DHT22;21791;42.828;74.582;2023-02-15T16:02:26;0.40;99.90
35678;DHT22;21791;42.828;74.582;2023-02-15T16:04:53;0.30;99.90
35678;DHT22;21791;42.828;74.582;2023-02-15T16:09:58;0.30;99.90
35678;DHT22;21791;42.828;74.582;2023-02-15T16:12:27;0.40;99.90
35678;DHT22;21791;42.828;74.582;2023-02-15T16:14:55;0.30;99.90
35678;DHT22;21791;42.828;74.582;2023-02-15T16:17:25;0.30;99.90
35678;DHT22;21791;42.828;74.582;2023-02-15T16:19:57;0.30;99.90
35678;DHT22;21791;42.828;74.582;2023-02-15T16:22:26;0.30;99.90
35678;DHT22;21791;42.828;74.582;2023-02-15T16:27:42;0.30;99.90
35678;DHT22;21791;42.828;74.582;2023-02-15T16:33:23;0.20;99.90
35678;DHT22;21791;42.828;74.582;2023-02-15T16:36:02;0.30;99.90
35678;DHT22;21791;42.828;74.582;2023-02-15T16:41:15;0.00;99.90
35678;DHT22;21791;42.828;74.582;2023-02-15T16:43:45;0.00;99.90
35678;DHT22;21791;42.828;74.582;2023-02-15T16:46:26;-0.10;99.90
35678;DHT22;21791;42.828;74.582;2023-02-15T16:48:56;-0.20;99.90
35678;DHT22;21791;42.828;74.582;2023-02-15T16:51:27;-0.10;99.90
35678;DHT22;21791;42.828;74.582;2023-02-15T16:53:56;-0.20;99.90
35678;DHT22;21791;42.828;74.582;2023-02-15T16:56:29;-0.20;99.90
35678;DHT22;21791;42.828;74.582;2023-02-15T16:58:57;-0.20;99.90
35678;DHT22;21791;42.828;74.582;2023-02-15T17:01:28;-0.40;99.90
35678;DHT22;21791;42.828;74.582;2023-02-15T17:04:14;-0.30;99.90
35678;DHT22;21791;42.828;74.582;2023-02-15T17:09:53;-0.20;99.90
35678;DHT22;21791;42.828;74.582;2023-02-15T17:12:55;-0.30;99.90
35678;DHT22;21791;42.828;74.582;2023-02-15T17:18:22;-0.40;99.90
35678;DHT22;21791;42.828;74.582;2023-02-15T17:20:54;-0.40;99.90
35678;DHT22;21791;42.828;74.582;2023-02-15T17:26:34;-0.60;99.90
35678;DHT22;21791;42.828;74.582;2023-02-15T17:31:49;-0.50;99.90
35678;DHT22;21791;42.828;74.582;2023-02-15T17:37:24;-0.50;99.90
35678;DHT22;21791;42.828;74.582;2023-02-15T17:39:51;-0.30;99.90
35678;DHT22;21791;42.828;74.582;2023-02-15T17:42:18;-0.20;99.90
35678;DHT22;21791;42.828;74.582;2023-02-15T17:44:44;-0.50;99.90
35678;DHT22;21791;42.828;74.582;2023-02-15T17:47:16;-0.30;99.90
35678;DHT22;21791;42.828;74.582;2023-02-15T17:49:44;-0.50;99.90
35678;DHT22;21791;42.828;74.582;2023-02-15T17:52:13;-0.30;99.90
35678;DHT22;21791;42.828;74.582;2023-02-15T17:54:41;-0.20;99.90
35678;DHT22;21791;42.828;74.582;2023-02-15T17:57:27;-0.60;99.90
35678;DHT22;21791;42.828;74.582;2023-02-15T17:59:54;-0.20;99.90
35678;DHT22;21791;42.828;74.582;2023-02-15T18:02:39;-0.40;99.90
35678;DHT22;21791;42.828;74.582;2023-02-15T18:05:24;-0.60;99.90
35678;DHT22;21791;42.828;74.582;2023-02-15T18:08:15;-0.20;99.90
35678;DHT22;21791;42.828;74.582;2023-02-15T18:11:00;-0.20;99.90
35678;DHT22;21791;42.828;74.582;2023-02-15T18:13:45;-0.70;99.90
35678;DHT22;21791;42.828;74.582;2023-02-15T18:16:20;-0.80;99.90
35678;DHT22;21791;42.828;74.582;2023-02-15T18:18:51;-0.80;99.90
35678;DHT22;21791;42.828;74.582;2023-02-15T18:21:18;-0.20;99.90
35678;DHT22;21791;42.828;74.582;2023-02-15T18:23:45;-0.70;99.90
35678;DHT22;21791;42.828;74.582;2023-02-15T18:26:23;-0.90;99.90
35678;DHT22;21791;42.828;74.582;2023-02-15T18:28:50;-0.80;99.90
35678;DHT22;21791;42.828;74.582;2023-02-15T18:31:18;-0.70;99.90
35678;DHT22;21791;42.828;74.582;2023-02-15T18:36:19;-0.20;99.90
35678;DHT22;21791;42.828;74.582;2023-02-15T18:38:47;-0.20;99.90
35678;DHT22;21791;42.828;74.582;2023-02-15T18:41:17;-0.70;99.90
35678;DHT22;21791;42.828;74.582;2023-02-15T18:43:44;-0.80;99.90
35678;DHT22;21791;42.828;74.582;2023-02-15T18:46:11;-0.40;99.90
35678;DHT22;21791;42.828;74.582;2023-02-15T18:48:41;-0.80;99.90
35678;DHT22;21791;42.828;74.582;2023-02-15T18:51:19;-0.80;99.90
35678;DHT22;21791;42.828;74.582;2023-02-15T18:53:49;-0.10;99.90
35678;DHT22;21791;42.828;74.582;2023-02-15T18:56:19;-0.90;99.90
35678;DHT22;21791;42.828;74.582;2023-02-15T18:58:46;-0.50;99.90
35678;DHT22;21791;42.828;74.582;2023-02-15T19:01:15;-1.00;99.90
35678;DHT22;21791;42.828;74.582;2023-02-15T19:04:01;-0.40;99.90
35678;DHT22;21791;42.828;74.582;2023-02-15T19:06:28;-0.80;99.90
35678;DHT22;21791;42.828;74.582;2023-02-15T19:08:54;-1.00;99.90
35678;DHT22;21791;42.828;74.582;2023-02-15T19:11:22;-1.10;99.90
35678;DHT22;21791;42.828;74.582;2023-02-15T19:13:51;-0.60;99.90
35678;DHT22;21791;42.828;74.582;2023-02-15T19:16:31;-0.60;99.90
35678;DHT22;21791;42.828;74.582;2023-02-15T19:18:58;-1.00;99.90
35678;DHT22;21791;42.828;74.582;2023-02-15T19:21:27;-1.00;99.90
35678;DHT22;21791;42.828;74.582;2023-02-15T19:24:00;-0.50;99.90
35678;DHT22;21791;42.828;74.582;2023-02-15T19:26:28;-0.90;99.90
35678;DHT22;21791;42.828;74.582;2023-02-15T19:28:59;-0.60;99.90
35678;DHT22;21791;42.828;74.582;2023-02-15T19:31:26;-0.10;99.90